Terminal Aerodrome Forecast
Issued by NWS

Home | Current Version | Previous Version | Text Only | Print | Product List | Glossary On
Versions: 1 2 3 4 5 6 7 8 9 10 11 12 13 14 15 16 17 18 19 20 21 22 23 24 25 26 27 28
000
FTUS44 KLZK 062300
TAFADF
TAF
KADF 062338Z 0700/0724 19003KT P6SM BKN250
      TEMPO 0707/0711 2SM BR
     FM071100 22006KT 5SM BR BKN030
      TEMPO 0711/0715 1SM BR OVC002
     FM071600 24010G17KT P6SM VCSH OVC040=

USA.gov is the U.S. government's official web portal to all federal, state and local government web resources and services.